Terminal Aerodrome Forecast
Issued by NWS Sioux Falls, SD

Home | Current Version | Previous Version | Text Only | Print | Product List | Glossary On
Versions: 1 2 3 4 5 6 7 8 9 10 11 12 13 14 15 16 17 18 19 20 21 22
000
FTUS43 KFSD 152159 AAE
TAFSUX
TAF AMD
KSUX 152159Z 1522/1618 13010KT 6SM SHRA BKN050
      TEMPO 1522/1524 VRB20G30KT 2SM TSRA BKN015CB OVC025
     FM160000 13009KT P6SM SHRA VCTS OVC070CB
     FM161000 12007KT 6SM SHRA BR OVC015
     FM161600 19005KT P6SM SHRA OVC020=

USA.gov is the U.S. government's official web portal to all federal, state and local government web resources and services.